createdAt,value
2024-03-16T00:01:17.719Z,8.33
2024-03-16T00:03:25.839Z,8.41
2024-03-16T00:05:33.909Z,8.27
2024-03-16T00:07:45.117Z,8.22
2024-03-16T00:09:52.986Z,8.25
2024-03-16T00:12:00.959Z,8.33
2024-03-16T00:14:08.905Z,8.30
2024-03-16T00:16:16.905Z,8.41
2024-03-16T00:18:25.093Z,8.42
2024-03-16T00:20:33.146Z,8.34
2024-03-16T00:22:44.713Z,8.36
2024-03-16T00:24:52.928Z,8.39
2024-03-16T00:26:58.961Z,8.35
2024-03-16T00:29:08.798Z,8.39
2024-03-16T00:31:18.012Z,8.47
2024-03-16T00:33:26.028Z,8.51
2024-03-16T00:35:34.444Z,8.31
2024-03-16T00:37:45.044Z,8.44
2024-03-16T00:39:53.105Z,8.52
2024-03-16T00:42:02.449Z,8.48
2024-03-16T00:44:10.067Z,8.50
2024-03-16T00:46:18.254Z,8.36
2024-03-16T00:48:26.174Z,8.36
2024-03-16T00:50:33.012Z,8.21
2024-03-16T00:52:41.117Z,8.16
2024-03-16T00:54:51.812Z,8.14
2024-03-16T00:57:00.103Z,8.03
2024-03-16T00:59:09.351Z,7.84
2024-03-16T01:01:18.675Z,7.90
2024-03-16T01:03:26.729Z,7.80
2024-03-16T01:05:34.873Z,7.83
2024-03-16T01:07:42.971Z,7.75
2024-03-16T01:09:53.720Z,7.61
2024-03-16T01:11:59.178Z,7.71
2024-03-16T01:14:10.136Z,7.72
2024-03-16T01:16:18.653Z,7.69
2024-03-16T01:18:27.110Z,7.54
2024-03-16T01:20:35.069Z,7.66
2024-03-16T01:22:40.401Z,7.62
2024-03-16T01:24:48.576Z,7.69
2024-03-16T01:26:59.196Z,7.66
2024-03-16T01:29:12.074Z,7.66
2024-03-16T01:31:20.166Z,7.73
2024-03-16T01:33:29.883Z,7.82
2024-03-16T01:35:38.061Z,7.75
2024-03-16T01:37:46.039Z,7.70
2024-03-16T01:39:53.979Z,7.72
2024-03-16T01:42:04.786Z,7.74
2024-03-16T01:44:16.570Z,7.88
2024-03-16T01:46:21.984Z,7.88
2024-03-16T01:48:30.059Z,8.00
2024-03-16T01:50:38.113Z,7.76
2024-03-16T01:52:46.579Z,7.84
2024-03-16T01:54:54.913Z,7.78
2024-03-16T01:57:05.742Z,7.86
2024-03-16T01:59:14.036Z,7.95
2024-03-16T02:01:22.213Z,8.00
2024-03-16T02:03:30.690Z,7.91
2024-03-16T02:05:38.953Z,8.09
2024-03-16T02:07:48.808Z,7.96
2024-03-16T02:09:57.176Z,7.92
2024-03-16T02:12:08.426Z,8.03
2024-03-16T02:14:16.498Z,7.98
2024-03-16T02:16:24.495Z,8.00
2024-03-16T02:18:29.779Z,8.10
2024-03-16T02:20:38.948Z,8.17
2024-03-16T02:22:51.182Z,8.04
2024-03-16T02:24:59.448Z,8.14
2024-03-16T02:27:05.109Z,8.07
2024-03-16T02:29:13.157Z,8.04
2024-03-16T02:31:21.136Z,8.18
2024-03-16T02:33:30.134Z,8.22
2024-03-16T02:35:35.535Z,8.22
2024-03-16T02:37:43.502Z,8.00
2024-03-16T02:39:54.230Z,8.02
2024-03-16T02:42:03.597Z,8.01
2024-03-16T02:44:11.802Z,7.88
2024-03-16T02:46:17.213Z,7.91
2024-03-16T02:48:25.187Z,7.82
2024-03-16T02:50:33.655Z,7.85
2024-03-16T02:52:41.604Z,7.96
2024-03-16T02:54:46.920Z,7.90
2024-03-16T02:56:57.649Z,8.01
2024-03-16T02:59:07.026Z,8.08
2024-03-16T03:01:16.119Z,8.07
2024-03-16T03:03:24.262Z,7.94
2024-03-16T03:05:32.298Z,7.94
2024-03-16T03:07:38.585Z,8.01
2024-03-16T03:09:47.493Z,8.06
2024-03-16T03:11:58.248Z,8.09
2024-03-16T03:14:07.745Z,8.00
2024-03-16T03:16:20.424Z,7.89
2024-03-16T03:18:26.597Z,7.94
2024-03-16T03:20:34.719Z,8.01
2024-03-16T03:22:42.762Z,7.98
2024-03-16T03:24:50.852Z,8.04
2024-03-16T03:27:01.656Z,8.03
2024-03-16T03:29:07.581Z,8.08
2024-03-16T03:31:15.644Z,8.28
2024-03-16T03:33:23.788Z,8.37
2024-03-16T03:35:33.194Z,8.31
2024-03-16T03:37:41.533Z,8.41
2024-03-16T03:39:54.007Z,8.39
2024-03-16T03:42:05.728Z,8.40
2024-03-16T03:44:26.027Z,8.36
2024-03-16T03:46:52.026Z,8.47
2024-03-16T03:49:12.741Z,8.45
2024-03-16T03:51:21.173Z,8.62
2024-03-16T03:53:30.283Z,8.56
2024-03-16T03:55:38.241Z,8.57
2024-03-16T03:57:50.491Z,8.42
2024-03-16T03:59:59.090Z,8.42
2024-03-16T04:02:07.656Z,8.44
2024-03-16T04:04:15.675Z,8.53
2024-03-16T04:06:23.813Z,8.50
2024-03-16T04:08:31.913Z,8.50
2024-03-16T04:10:41.065Z,8.48
2024-03-16T04:12:51.818Z,8.52
2024-03-16T04:15:00.221Z,8.57
2024-03-16T04:17:08.718Z,8.58
2024-03-16T04:19:17.546Z,8.65
2024-03-16T04:21:26.226Z,8.63
2024-03-16T04:23:34.379Z,8.62
2024-03-16T04:25:42.481Z,8.69
2024-03-16T04:27:53.294Z,8.72
2024-03-16T04:30:02.392Z,8.69
2024-03-16T04:32:11.213Z,8.65
2024-03-16T04:34:19.387Z,8.63
2024-03-16T04:36:27.536Z,8.63
2024-03-16T04:38:35.694Z,8.63
2024-03-16T04:40:44.116Z,8.74
2024-03-16T04:42:55.027Z,8.78
2024-03-16T04:45:03.216Z,8.78
2024-03-16T04:47:11.411Z,8.72
2024-03-16T04:49:19.688Z,8.67
2024-03-16T04:51:28.058Z,8.66
2024-03-16T04:53:36.253Z,8.80
2024-03-16T04:55:44.538Z,8.94
2024-03-16T04:57:55.738Z,8.99
2024-03-16T05:00:04.219Z,8.76
2024-03-16T05:02:12.658Z,8.70
2024-03-16T05:04:20.865Z,8.78
2024-03-16T05:06:29.091Z,8.72
2024-03-16T05:08:38.060Z,8.74
2024-03-16T05:10:47.280Z,8.71
2024-03-16T05:12:58.170Z,8.72
2024-03-16T05:15:07.014Z,8.67
2024-03-16T05:17:15.079Z,8.50
2024-03-16T05:19:23.407Z,8.40
2024-03-16T05:21:31.348Z,8.44
2024-03-16T05:23:41.097Z,8.43
2024-03-16T05:25:50.076Z,8.40
2024-03-16T05:28:00.896Z,8.40
2024-03-16T05:30:11.726Z,8.50
2024-03-16T05:32:17.085Z,8.45
2024-03-16T05:34:25.563Z,8.40
2024-03-16T05:36:33.899Z,8.27
2024-03-16T05:38:41.877Z,8.38
2024-03-16T05:40:50.157Z,8.40
2024-03-16T05:43:01.066Z,8.33
2024-03-16T05:45:10.146Z,8.27
2024-03-16T05:47:22.530Z,8.23
2024-03-16T05:49:30.574Z,8.31
2024-03-16T05:51:38.682Z,8.33
2024-03-16T05:53:47.337Z,8.34
2024-03-16T05:55:53.113Z,8.41
2024-03-16T05:58:04.043Z,8.42
2024-03-16T06:00:17.847Z,8.42
2024-03-16T06:02:26.492Z,8.56
2024-03-16T06:04:34.966Z,8.54
2024-03-16T06:06:41.263Z,8.42
2024-03-16T06:08:49.336Z,8.48
2024-03-16T06:10:57.379Z,8.49
2024-03-16T06:13:08.756Z,8.62
2024-03-16T06:15:17.638Z,8.71
2024-03-16T06:17:25.822Z,8.76
2024-03-16T06:19:33.964Z,8.76
2024-03-16T06:21:39.678Z,8.80
2024-03-16T06:23:48.115Z,8.84
2024-03-16T06:26:04.845Z,8.78
2024-03-16T06:28:18.508Z,8.92
2024-03-16T06:30:29.632Z,8.86
2024-03-16T06:32:40.129Z,8.84
2024-03-16T06:34:45.658Z,8.98
2024-03-16T06:36:54.513Z,9.02
2024-03-16T06:39:07.496Z,9.09
2024-03-16T06:41:15.706Z,9.18
2024-03-16T06:43:26.565Z,9.34
2024-03-16T06:45:34.867Z,9.22
2024-03-16T06:47:42.975Z,9.17
2024-03-16T06:49:51.456Z,9.18
2024-03-16T06:52:00.131Z,9.25
2024-03-16T06:54:08.469Z,9.29
2024-03-16T06:56:14.788Z,9.36
2024-03-16T06:58:26.028Z,9.53
2024-03-16T07:00:34.058Z,9.55
2024-03-16T07:02:42.114Z,9.51
2024-03-16T07:04:47.479Z,9.56
2024-03-16T07:06:55.564Z,9.57
2024-03-16T07:09:09.713Z,9.58
2024-03-16T07:11:15.187Z,9.54
2024-03-16T07:13:26.125Z,9.50
2024-03-16T07:15:36.729Z,9.51
2024-03-16T07:17:44.871Z,9.44
2024-03-16T07:19:53.481Z,9.41
2024-03-16T07:22:02.120Z,9.35
2024-03-16T07:24:11.502Z,9.49
2024-03-16T07:26:19.656Z,9.40
2024-03-16T07:28:32.097Z,9.50
2024-03-16T07:30:43.005Z,9.64
2024-03-16T07:32:51.507Z,9.65
2024-03-16T07:34:59.720Z,9.75
2024-03-16T07:37:08.325Z,9.92
2024-03-16T07:39:16.675Z,10.06
2024-03-16T07:41:24.721Z,10.14
2024-03-16T07:43:33.022Z,10.15
2024-03-16T07:45:44.159Z,10.13
2024-03-16T07:47:52.739Z,10.15
2024-03-16T07:50:00.898Z,10.15
2024-03-16T07:52:09.408Z,10.27
2024-03-16T07:54:17.635Z,10.17
2024-03-16T07:56:25.665Z,10.24
2024-03-16T07:58:36.502Z,10.17
2024-03-16T08:00:45.002Z,10.23
2024-03-16T08:02:53.070Z,10.22
2024-03-16T08:05:01.157Z,10.22
2024-03-16T08:07:09.243Z,10.18
2024-03-16T08:09:17.356Z,10.27
2024-03-16T08:11:29.197Z,10.16
2024-03-16T08:13:40.007Z,10.25
2024-03-16T08:15:45.555Z,10.12
2024-03-16T08:17:57.871Z,10.32
2024-03-16T08:20:09.594Z,10.16
2024-03-16T08:22:18.319Z,10.21
2024-03-16T08:24:23.753Z,10.20
2024-03-16T08:26:32.151Z,10.16
2024-03-16T08:28:45.413Z,10.22
2024-03-16T08:30:53.731Z,9.95
2024-03-16T08:32:59.609Z,9.92
2024-03-16T08:35:09.039Z,10.14
2024-03-16T08:37:19.712Z,9.92
2024-03-16T08:39:28.417Z,10.07
2024-03-16T08:41:34.590Z,10.19
2024-03-16T08:43:45.438Z,10.20
2024-03-16T08:45:53.505Z,10.11
2024-03-16T08:48:02.545Z,10.17
2024-03-16T08:50:10.942Z,10.37
2024-03-16T08:52:19.517Z,10.51
2024-03-16T08:54:27.992Z,10.59
2024-03-16T08:56:33.460Z,10.69
2024-03-16T08:58:42.635Z,10.85
2024-03-16T09:00:56.243Z,10.92
2024-03-16T09:03:04.441Z,10.92
2024-03-16T09:05:10.062Z,11.06
2024-03-16T09:07:18.491Z,11.09
2024-03-16T09:09:28.750Z,11.22
2024-03-16T09:11:37.125Z,11.38
2024-03-16T09:13:42.571Z,11.71
2024-03-16T09:15:53.599Z,11.79
2024-03-16T09:17:59.074Z,12.06
2024-03-16T09:20:09.632Z,12.06
2024-03-16T09:22:18.782Z,12.27
2024-03-16T09:24:27.857Z,12.01
2024-03-16T09:26:36.091Z,12.17
2024-03-16T09:28:41.654Z,12.50
2024-03-16T09:30:50.671Z,12.54
2024-03-16T09:33:03.099Z,12.59
2024-03-16T09:35:12.172Z,12.32
2024-03-16T09:37:21.166Z,12.35
2024-03-16T09:39:29.738Z,12.66
2024-03-16T09:41:37.922Z,12.74
